createdAt,value
2019-04-22T00:00:01.010Z,181.87
2019-04-22T00:02:40.010Z,182.10
2019-04-22T00:05:16.634Z,191.83
2019-04-22T00:08:03.767Z,181.73
2019-04-22T00:10:40.733Z,188.40
2019-04-22T00:13:06.669Z,180.07
2019-04-22T00:15:32.641Z,173.80
2019-04-22T00:18:16.531Z,178.33
2019-04-22T00:20:43.935Z,177.33
2019-04-22T00:23:11.410Z,180.97
2019-04-22T00:25:52.867Z,183.63
2019-04-22T00:28:19.900Z,179.47
2019-04-22T00:30:47.112Z,173.67
2019-04-22T00:33:26.845Z,176.87
2019-04-22T00:36:01.149Z,178.80
2019-04-22T00:38:31.794Z,175.60
2019-04-22T00:41:05.723Z,176.33
2019-04-22T00:43:33.435Z,175.37
2019-04-22T00:46:02.704Z,175.33
2019-04-22T00:49:19.680Z,175.70
2019-04-22T00:51:14.361Z,184.67
2019-04-22T00:53:40.196Z,174.07
2019-04-22T00:56:17.085Z,175.63
2019-04-22T01:03:55.874Z,176.63
2019-04-22T01:06:20.461Z,177.97
2019-04-22T01:13:55.865Z,174.77
2019-04-22T01:16:28.097Z,177.73
2019-04-22T01:19:00.463Z,181.80
2019-04-22T01:21:36.869Z,175.23
2019-04-22T01:23:59.696Z,169.10
2019-04-22T01:26:28.952Z,171.37
2019-04-22T01:28:59.166Z,179.27
2019-04-22T01:31:22.057Z,174.43
2019-04-22T01:34:08.198Z,181.90
2019-04-22T01:36:41.549Z,171.23
2019-04-22T01:39:15.384Z,170.53
2019-04-22T01:41:55.149Z,169.43
2019-04-22T01:47:00.366Z,169.97
2019-04-22T01:49:27.509Z,180.13
2019-04-22T01:52:12.783Z,171.77
2019-04-22T01:54:35.153Z,170.10
2019-04-22T01:57:02.189Z,171.33
2019-04-22T01:59:29.159Z,167.87
2019-04-22T02:02:02.895Z,167.27
2019-04-22T02:04:36.848Z,166.53
2019-04-22T02:07:10.857Z,173.87
2019-04-22T02:09:47.457Z,170.70
2019-04-22T02:12:12.872Z,170.43
2019-04-22T02:14:43.999Z,167.03
2019-04-22T02:19:45.625Z,170.33
2019-04-22T02:22:17.649Z,165.73
2019-04-22T02:24:53.815Z,167.33
2019-04-22T02:27:29.324Z,171.37
2019-04-22T02:29:47.377Z,173.77
2019-04-22T02:32:56.707Z,168.37
2019-04-22T02:37:26.475Z,167.80
2019-04-22T02:40:03.730Z,167.37
2019-04-22T02:42:52.227Z,169.73
2019-04-22T02:45:18.356Z,164.80
2019-04-22T02:47:31.027Z,163.10
2019-04-22T02:50:07.435Z,166.03
2019-04-22T02:52:39.478Z,169.20
2019-04-22T02:55:07.183Z,164.83
2019-04-22T02:57:39.707Z,162.63
2019-04-22T03:02:52.724Z,164.03
2019-04-22T03:05:17.796Z,158.50
2019-04-22T03:07:50.665Z,162.60
2019-04-22T03:10:18.950Z,167.00
2019-04-22T03:13:09.414Z,166.37
2019-04-22T03:15:11.798Z,160.63
2019-04-22T03:17:57.186Z,161.33
2019-04-22T03:20:24.823Z,161.77
2019-04-22T03:25:51.749Z,161.47
2019-04-22T03:27:50.556Z,161.90
2019-04-22T03:33:11.780Z,163.90
2019-04-22T03:38:18.152Z,160.43
2019-04-22T03:43:18.474Z,159.37
2019-04-22T03:45:34.011Z,167.37
2019-04-22T03:48:07.290Z,158.90
2019-04-22T03:51:12.081Z,161.00
2019-04-22T03:53:14.962Z,161.40
2019-04-22T03:55:46.712Z,158.87
2019-04-22T03:58:11.068Z,160.83
2019-04-22T04:00:55.779Z,158.67
2019-04-22T04:05:52.564Z,161.03
2019-04-22T04:08:31.821Z,160.77
2019-04-22T04:10:53.483Z,161.50
2019-04-22T04:16:00.237Z,166.40
2019-04-22T04:18:39.564Z,167.67
2019-04-22T04:21:22.789Z,160.90
2019-04-22T04:23:49.697Z,159.43
2019-04-22T04:26:28.858Z,166.13
2019-04-22T04:28:53.235Z,162.23
2019-04-22T04:31:17.436Z,159.33
2019-04-22T04:36:47.981Z,158.30
2019-04-22T04:39:05.425Z,158.63
2019-04-22T04:42:07.482Z,154.90
2019-04-22T04:44:23.278Z,157.97
2019-04-22T04:46:49.728Z,151.23
2019-04-22T04:49:23.888Z,154.40
2019-04-22T04:51:47.215Z,152.40
2019-04-22T04:56:50.362Z,151.87
2019-04-22T05:01:55.142Z,153.63
2019-04-22T05:04:37.271Z,150.90
2019-04-22T05:09:36.024Z,150.77
2019-04-22T05:12:19.529Z,148.57
2019-04-22T05:14:28.553Z,154.40
2019-04-22T05:17:03.931Z,148.50
2019-04-22T05:19:33.129Z,151.63
2019-04-22T05:22:05.513Z,148.33
2019-04-22T05:24:34.722Z,171.47
2019-04-22T05:27:14.970Z,158.13
2019-04-22T05:30:07.428Z,152.73
2019-04-22T05:32:24.537Z,150.27
2019-04-22T05:34:52.902Z,153.83
2019-04-22T05:37:27.339Z,148.57
2019-04-22T05:40:04.466Z,157.43
2019-04-22T05:42:42.685Z,155.57
2019-04-22T05:45:02.957Z,150.97
2019-04-22T05:48:18.363Z,151.57
2019-04-22T05:51:01.993Z,153.90
2019-04-22T05:53:23.545Z,173.37
2019-04-22T05:55:55.566Z,160.43
2019-04-22T05:58:34.499Z,154.60
2019-04-22T06:03:46.235Z,158.70
2019-04-22T06:06:13.758Z,153.30
2019-04-22T06:08:48.707Z,150.67
2019-04-22T06:11:23.628Z,153.83
2019-04-22T06:13:46.624Z,154.00
2019-04-22T06:16:26.421Z,158.33
2019-04-22T06:19:05.725Z,157.30
2019-04-22T06:21:35.711Z,157.73
2019-04-22T06:24:11.258Z,153.80
2019-04-22T06:26:45.765Z,154.83
2019-04-22T06:29:09.226Z,158.60
2019-04-22T06:31:53.902Z,158.77
2019-04-22T06:34:14.426Z,156.53
2019-04-22T06:36:47.791Z,158.40
2019-04-22T06:39:19.036Z,158.23
2019-04-22T06:44:22.691Z,161.57
2019-04-22T06:46:49.182Z,156.17
2019-04-22T06:49:26.209Z,165.13
2019-04-22T06:51:53.733Z,156.73
2019-04-22T06:54:22.010Z,156.47
2019-04-22T06:56:57.746Z,162.40
2019-04-22T06:59:29.755Z,157.13
2019-04-22T07:04:30.332Z,156.33
2019-04-22T07:07:05.388Z,158.93
2019-04-22T07:09:36.663Z,161.67
2019-04-22T07:12:08.446Z,158.50
2019-04-22T07:14:35.261Z,159.17
2019-04-22T07:17:07.570Z,162.10
2019-04-22T07:19:40.861Z,164.67
2019-04-22T07:22:19.962Z,161.87
2019-04-22T07:29:46.880Z,164.53
2019-04-22T07:32:15.299Z,161.67
2019-04-22T07:34:46.213Z,162.00
2019-04-22T07:37:28.388Z,162.53
2019-04-22T07:39:45.603Z,165.03
2019-04-22T07:42:24.581Z,168.67
2019-04-22T07:47:25.353Z,171.90
2019-04-22T07:50:03.905Z,173.70
2019-04-22T07:52:30.327Z,169.77
2019-04-22T07:54:56.893Z,171.93
2019-04-22T08:00:02.968Z,176.00
2019-04-22T08:02:37.379Z,176.90
2019-04-22T08:07:36.799Z,176.60
2019-04-22T08:12:38.884Z,177.70
2019-04-22T08:15:05.765Z,176.53
2019-04-22T08:20:15.581Z,175.37
2019-04-22T08:22:43.085Z,174.60
2019-04-22T08:25:10.318Z,190.80
2019-04-22T08:27:50.489Z,176.17
2019-04-22T08:30:23.476Z,175.97
2019-04-22T08:32:48.929Z,175.13
2019-04-22T08:35:29.860Z,177.70
2019-04-22T08:38:06.181Z,176.80
2019-04-22T08:40:32.867Z,170.40
2019-04-22T08:43:20.296Z,175.87
2019-04-22T08:45:46.215Z,173.33
2019-04-22T08:47:55.079Z,172.93
2019-04-22T08:50:26.760Z,172.93
2019-04-22T08:53:02.076Z,175.27
2019-04-22T08:55:34.044Z,173.13
2019-04-22T09:00:37.332Z,175.47
2019-04-22T09:03:27.981Z,174.27
2019-04-22T09:08:14.320Z,175.40
2019-04-22T09:10:43.591Z,173.30
2019-04-22T09:13:15.626Z,174.20
2019-04-22T09:16:08.766Z,172.30
2019-04-22T09:18:23.220Z,171.67
2019-04-22T09:21:04.712Z,170.77
2019-04-22T09:23:23.557Z,170.77
2019-04-22T09:25:57.568Z,172.60
2019-04-22T09:28:26.034Z,172.63
2019-04-22T09:31:01.840Z,172.37
2019-04-22T09:36:09.167Z,175.53
2019-04-22T09:38:38.152Z,175.93
2019-04-22T09:41:06.490Z,173.97
2019-04-22T09:43:40.085Z,172.73
2019-04-22T09:46:08.529Z,175.83
2019-04-22T09:48:43.490Z,173.63
2019-04-22T09:51:05.826Z,171.90
2019-04-22T09:53:47.280Z,173.03
2019-04-22T09:56:17.816Z,174.20
2019-04-22T09:58:44.662Z,172.67
2019-04-22T10:01:23.466Z,175.00
2019-04-22T10:03:59.167Z,173.87
2019-04-22T10:06:33.777Z,172.60
2019-04-22T10:11:26.814Z,171.20
2019-04-22T10:16:35.758Z,173.80
2019-04-22T10:19:01.027Z,171.83
2019-04-22T10:24:04.752Z,171.87
2019-04-22T10:26:33.480Z,170.30
2019-04-22T10:29:09.089Z,174.07
2019-04-22T10:31:37.045Z,171.33
2019-04-22T10:33:56.272Z,179.77
2019-04-22T10:36:13.196Z,172.07
2019-04-22T10:38:44.435Z,174.33
2019-04-22T10:41:16.571Z,173.47
2019-04-22T10:43:47.614Z,172.73
2019-04-22T10:46:18.057Z,174.00
2019-04-22T10:48:48.344Z,176.03
2019-04-22T10:51:19.006Z,173.33
2019-04-22T10:53:49.331Z,173.93
2019-04-22T10:56:19.343Z,170.87
2019-04-22T10:58:49.135Z,171.63
2019-04-22T11:01:18.792Z,174.30
2019-04-22T11:03:49.093Z,179.13
2019-04-22T11:06:19.243Z,170.90
2019-04-22T11:08:57.438Z,171.03
2019-04-22T11:11:37.719Z,171.37
2019-04-22T11:13:53.737Z,173.53
2019-04-22T11:16:23.563Z,171.70
2019-04-22T11:18:53.688Z,172.00
2019-04-22T11:21:23.518Z,175.40
2019-04-22T11:23:54.472Z,174.13
2019-04-22T11:26:25.921Z,170.40
2019-04-22T11:28:56.033Z,172.17
2019-04-22T11:31:26.441Z,171.30
2019-04-22T11:33:56.703Z,176.77
2019-04-22T11:36:29.162Z,172.20
2019-04-22T11:39:01.922Z,171.20
2019-04-22T11:41:31.073Z,173.57
2019-04-22T11:44:01.293Z,171.77
2019-04-22T11:46:31.624Z,172.97
2019-04-22T11:49:03.634Z,173.47
2019-04-22T11:51:33.842Z,175.13
2019-04-22T11:54:05.028Z,172.80
2019-04-22T11:56:35.143Z,172.90
2019-04-22T11:59:06.635Z,173.40
2019-04-22T12:01:37.166Z,171.97
2019-04-22T12:04:07.657Z,172.47
2019-04-22T12:06:37.891Z,171.27
2019-04-22T12:09:12.118Z,170.80
2019-04-22T12:11:42.087Z,171.53
2019-04-22T12:14:11.998Z,175.30
2019-04-22T12:16:41.763Z,171.57
2019-04-22T12:19:11.503Z,171.97
2019-04-22T12:21:41.357Z,174.10
2019-04-22T12:24:11.203Z,171.77
2019-04-22T12:26:42.372Z,169.73
2019-04-22T12:29:13.259Z,172.10
2019-04-22T12:31:43.348Z,171.90
2019-04-22T12:34:15.460Z,173.10
2019-04-22T12:36:46.681Z,172.43
2019-04-22T12:39:17.879Z,170.87
2019-04-22T12:41:47.843Z,172.03
2019-04-22T12:44:18.063Z,171.37
2019-04-22T12:46:48.102Z,170.63
2019-04-22T12:49:18.198Z,169.73
2019-04-22T12:51:49.267Z,171.17
2019-04-22T12:54:19.356Z,172.33
2019-04-22T12:56:49.304Z,170.93
2019-04-22T12:59:19.368Z,172.47
2019-04-22T13:01:49.279Z,174.53
2019-04-22T13:04:21.214Z,171.73
2019-04-22T13:06:50.391Z,173.03
2019-04-22T13:09:21.223Z,170.23
2019-04-22T13:11:51.144Z,174.50
2019-04-22T13:14:21.226Z,173.13
2019-04-22T13:16:51.309Z,172.40
2019-04-22T13:19:22.995Z,170.30
2019-04-22T13:21:52.490Z,173.87
2019-04-22T13:24:23.623Z,169.60
2019-04-22T13:26:55.054Z,169.87
2019-04-22T13:29:25.409Z,171.00
2019-04-22T13:31:55.226Z,169.37
2019-04-22T13:34:30.427Z,170.83
2019-04-22T13:36:56.741Z,170.00
2019-04-22T13:39:27.161Z,171.30
2019-04-22T13:42:02.456Z,171.27
2019-04-22T13:44:28.379Z,169.13
2019-04-22T13:47:14.774Z,168.70
2019-04-22T13:50:08.275Z,170.73
2019-04-22T13:52:40.160Z,169.20
2019-04-22T13:54:58.710Z,172.03
2019-04-22T13:57:27.917Z,169.50
2019-04-22T13:59:41.089Z,172.93
2019-04-22T14:02:44.679Z,174.37
2019-04-22T14:05:16.984Z,169.37
2019-04-22T14:07:46.824Z,170.07
2019-04-22T14:10:18.471Z,169.77
2019-04-22T14:12:48.804Z,170.67
2019-04-22T14:15:20.160Z,170.03
2019-04-22T14:17:50.003Z,169.37
2019-04-22T14:20:21.577Z,168.03
2019-04-22T14:22:52.719Z,167.53
2019-04-22T14:25:24.779Z,173.53
2019-04-22T14:28:01.968Z,169.87
2019-04-22T14:30:26.525Z,171.87
2019-04-22T14:32:56.287Z,167.27
2019-04-22T14:35:27.115Z,169.70
2019-04-22T14:37:58.303Z,169.63
2019-04-22T14:40:30.250Z,167.83
2019-04-22T14:43:22.788Z,168.10
2019-04-22T14:46:05.560Z,169.47
2019-04-22T14:48:31.138Z,168.23
2019-04-22T14:50:53.126Z,171.13
2019-04-22T14:53:29.382Z,168.83
2019-04-22T14:55:38.495Z,170.47
2019-04-22T14:58:10.872Z,171.23
2019-04-22T15:00:42.259Z,171.23
2019-04-22T15:03:13.466Z,169.70
2019-04-22T15:05:44.166Z,171.07
2019-04-22T15:08:15.033Z,168.90
2019-04-22T15:10:46.169Z,167.33
2019-04-22T15:13:17.647Z,171.07
2019-04-22T15:16:05.992Z,169.80
2019-04-22T15:18:53.821Z,169.20
2019-04-22T15:21:25.024Z,169.07
2019-04-22T15:23:56.268Z,167.70
2019-04-22T15:26:26.457Z,168.63
2019-04-22T15:28:57.734Z,168.33
2019-04-22T15:31:29.263Z,170.10
2019-04-22T15:34:00.479Z,169.97
2019-04-22T15:36:30.554Z,168.60
2019-04-22T15:39:00.323Z,171.27
2019-04-22T15:41:30.596Z,168.10
2019-04-22T15:44:01.748Z,167.87
2019-04-22T15:46:32.099Z,168.23
2019-04-22T15:49:02.265Z,169.47
2019-04-22T15:51:32.366Z,167.43
2019-04-22T15:54:03.471Z,169.83
2019-04-22T15:56:34.900Z,170.00
2019-04-22T15:59:17.217Z,175.70
2019-04-22T16:01:40.670Z,168.93
2019-04-22T16:04:08.421Z,167.50
2019-04-22T16:06:38.864Z,167.70
2019-04-22T16:09:11.090Z,169.77
2019-04-22T16:11:42.361Z,169.30
2019-04-22T16:14:17.755Z,167.53
2019-04-22T16:16:46.241Z,168.60
2019-04-22T16:19:17.003Z,168.80
2019-04-22T16:21:55.576Z,167.67
2019-04-22T16:24:38.270Z,169.33
2019-04-22T16:27:14.172Z,169.00
2019-04-22T16:29:45.289Z,167.90
2019-04-22T16:32:15.724Z,171.37
2019-04-22T16:34:45.848Z,168.57
2019-04-22T16:37:16.748Z,167.90
2019-04-22T16:39:48.960Z,167.77
2019-04-22T16:42:27.679Z,168.33
2019-04-22T16:44:49.637Z,167.60
2019-04-22T16:47:21.550Z,172.90
2019-04-22T16:49:51.916Z,169.97
2019-04-22T16:52:22.018Z,167.27
2019-04-22T16:54:52.724Z,167.67
2019-04-22T16:57:23.797Z,170.30
2019-04-22T16:59:54.897Z,169.73
2019-04-22T17:02:50.070Z,169.40
2019-04-22T17:05:38.495Z,167.03
2019-04-22T17:08:08.343Z,172.47
2019-04-22T17:10:39.646Z,171.03
2019-04-22T17:13:17.151Z,166.73
2019-04-22T17:15:41.622Z,166.23
2019-04-22T17:18:12.811Z,167.57
2019-04-22T17:20:42.760Z,165.47
2019-04-22T17:23:13.928Z,167.53
2019-04-22T17:25:44.598Z,165.33
2019-04-22T17:28:15.417Z,164.50
2019-04-22T17:30:45.703Z,164.40
2019-04-22T17:33:16.857Z,165.37
2019-04-22T17:35:49.897Z,163.80
2019-04-22T17:38:27.172Z,167.67
2019-04-22T17:41:05.808Z,163.93
2019-04-22T17:44:00.305Z,168.30
2019-04-22T17:46:19.376Z,165.20
2019-04-22T17:49:04.334Z,162.50
2019-04-22T17:51:36.678Z,164.03
2019-04-22T17:54:06.764Z,163.43
2019-04-22T17:56:43.394Z,163.40
2019-04-22T17:59:15.608Z,167.20
2019-04-22T18:01:43.830Z,167.30
2019-04-22T18:04:00.573Z,162.63
2019-04-22T18:06:55.079Z,167.03
2019-04-22T18:09:26.886Z,163.30
2019-04-22T18:11:51.198Z,164.73
2019-04-22T18:14:35.043Z,162.67
2019-04-22T18:16:59.206Z,161.67
2019-04-22T18:19:21.035Z,164.37
2019-04-22T18:21:47.594Z,162.43
2019-04-22T18:24:17.415Z,166.40
2019-04-22T18:27:02.832Z,163.70
2019-04-22T18:29:28.442Z,161.73
2019-04-22T18:31:51.173Z,162.07
2019-04-22T18:34:25.510Z,162.50
2019-04-22T18:37:00.706Z,161.17
2019-04-22T18:39:42.331Z,161.07
2019-04-22T18:42:04.356Z,160.40
2019-04-22T18:44:44.521Z,174.80
2019-04-22T18:47:07.317Z,161.40
2019-04-22T18:49:37.611Z,162.07
2019-04-22T18:52:31.779Z,159.27
2019-04-22T18:55:30.947Z,159.10
2019-04-22T18:58:02.873Z,162.23
2019-04-22T19:00:21.415Z,164.17
2019-04-22T19:02:59.377Z,159.57
2019-04-22T19:05:40.099Z,162.13
2019-04-22T19:10:57.652Z,158.30
2019-04-22T19:16:17.202Z,160.83
2019-04-22T19:18:31.787Z,158.17
2019-04-22T19:23:27.786Z,161.27
2019-04-22T19:25:57.151Z,163.53
2019-04-22T19:28:34.384Z,160.40
2019-04-22T19:31:10.809Z,158.10
2019-04-22T19:33:35.243Z,155.63
2019-04-22T19:36:10.977Z,158.03
2019-04-22T19:38:26.340Z,159.27
2019-04-22T19:41:13.555Z,162.93
2019-04-22T19:43:41.024Z,158.97
2019-04-22T19:46:07.510Z,160.63
2019-04-22T19:48:50.121Z,158.87
2019-04-22T19:51:15.667Z,160.37
2019-04-22T19:53:48.118Z,159.97
2019-04-22T19:56:11.321Z,157.17
2019-04-22T19:58:41.461Z,157.67
2019-04-22T20:01:54.096Z,160.40
2019-04-22T20:04:40.028Z,158.47
2019-04-22T20:07:11.305Z,158.77
2019-04-22T20:09:43.791Z,158.73
2019-04-22T20:12:10.606Z,161.73
2019-04-22T20:14:48.102Z,156.53
2019-04-22T20:17:19.827Z,164.67
2019-04-22T20:22:17.792Z,156.70
2019-04-22T20:24:43.400Z,157.47
2019-04-22T20:27:28.513Z,162.03
2019-04-22T20:29:54.753Z,157.50
2019-04-22T20:32:26.261Z,158.93
2019-04-22T20:35:04.069Z,157.77
2019-04-22T20:37:35.177Z,156.97
2019-04-22T20:40:02.410Z,155.47
2019-04-22T20:45:03.937Z,157.03
2019-04-22T20:47:32.266Z,155.03
2019-04-22T20:50:07.954Z,156.63
2019-04-22T20:52:52.808Z,156.67
2019-04-22T20:55:02.613Z,156.20
2019-04-22T20:57:40.423Z,157.10
2019-04-22T21:00:06.107Z,157.20
2019-04-22T21:02:33.743Z,157.40
2019-04-22T21:05:02.283Z,157.93
2019-04-22T21:07:41.325Z,158.30
2019-04-22T21:10:14.497Z,156.10
2019-04-22T21:12:39.742Z,155.90
2019-04-22T21:15:26.296Z,155.30
2019-04-22T21:17:54.425Z,158.77
2019-04-22T21:20:33.353Z,155.57
2019-04-22T21:22:58.126Z,161.90
2019-04-22T21:25:20.924Z,157.57
2019-04-22T21:27:59.808Z,156.57
2019-04-22T21:30:34.244Z,155.53
2019-04-22T21:32:58.009Z,157.23
2019-04-22T21:35:51.849Z,163.00
2019-04-22T21:38:08.754Z,154.27
2019-04-22T21:40:38.807Z,158.93
2019-04-22T21:43:12.152Z,155.70
2019-04-22T21:45:35.343Z,155.80
2019-04-22T21:48:20.160Z,157.33
2019-04-22T21:53:26.159Z,156.00
2019-04-22T21:55:54.278Z,156.33
2019-04-22T21:58:44.235Z,156.87
2019-04-22T22:01:29.158Z,155.37
2019-04-22T22:03:55.495Z,155.60
2019-04-22T22:06:16.683Z,159.57
2019-04-22T22:08:59.655Z,160.53
2019-04-22T22:11:27.673Z,154.97
2019-04-22T22:14:04.140Z,154.50
2019-04-22T22:16:27.749Z,155.23
2019-04-22T22:19:09.821Z,154.70
2019-04-22T22:24:10.164Z,155.60
2019-04-22T22:26:43.086Z,154.53
2019-04-22T22:29:26.832Z,156.37
2019-04-22T22:31:47.178Z,155.63
2019-04-22T22:34:21.355Z,174.70
2019-04-22T22:36:36.868Z,155.13
2019-04-22T22:39:13.268Z,155.43
2019-04-22T22:41:26.111Z,155.37
2019-04-22T22:44:03.419Z,154.33
2019-04-22T22:46:37.323Z,168.20
2019-04-22T22:49:23.683Z,154.73
2019-04-22T22:51:59.550Z,155.03
2019-04-22T22:54:25.185Z,154.23
2019-04-22T22:57:01.902Z,156.27
2019-04-22T22:59:27.659Z,160.50
2019-04-22T23:01:54.348Z,155.83
2019-04-22T23:04:32.879Z,154.47
2019-04-22T23:07:06.611Z,154.73
2019-04-22T23:09:31.558Z,156.90
2019-04-22T23:12:31.230Z,157.33
2019-04-22T23:14:38.266Z,157.80
2019-04-22T23:16:51.439Z,154.03
2019-04-22T23:19:17.992Z,159.33
2019-04-22T23:21:52.681Z,155.10
2019-04-22T23:24:54.106Z,153.97
2019-04-22T23:27:26.199Z,153.63
2019-04-22T23:30:19.291Z,154.57
2019-04-22T23:32:59.633Z,152.83
2019-04-22T23:35:34.351Z,153.23
2019-04-22T23:38:08.353Z,155.20
2019-04-22T23:40:38.508Z,157.20
2019-04-22T23:43:15.483Z,159.57
2019-04-22T23:45:44.782Z,156.23
2019-04-22T23:48:10.195Z,161.33
2019-04-22T23:50:51.000Z,154.10
2019-04-22T23:53:55.486Z,152.93
2019-04-22T23:56:06.120Z,155.67
